Alexandria, Tennessee
Current Conditions -  °F | °C
As of 5:53 AM on Tuesday 27 Jan 2015 (Local Time) from KBNA Reporting Station
Overcast Overcast  
Wind Chill: 33°   Ceiling: 3700
Heat Index: 33°   Visibility: 8mi
Dew Point: 30°   Wind: 3mph
Humidity: 89%   Direction: 310°NW
Pressure: 29.94"   Gusts: NA
Location:  36.08°N, 86.03°W
Report Text: KBNA 271153Z 31003KT 8SM BKN037 OVC065 01/M01 A2994 RMK AO2 SLP143 70001 T00061011 10017 20000 53013
Loading
Personal Weather Stations






























Interactive Weather Map New forecast layout! Learn more

10-Day Weather Forecast

Advertisements
Track Severe Weather on mobile